This is the latest recevied weather packets stored in our database for station/object AD5L. If no packets are shown the sender has not sent any weather packets the latest 10 day(s).
| Time | Temp. | Humidity | Pressure | Rain* | Wind** | Luminosity | Snow |
|---|---|---|---|---|---|---|---|
| 1777877608 | 17.22° C | 77% | 1016.7 hPa | 0 mm | - | - | - |
| 1777877018 | 17.78° C | 76% | 1016.8 hPa | 0 mm | - | - | - |
| 1777876409 | 17.78° C | 76% | 1016.9 hPa | 0 mm | - | - | - |
| 1777875821 | 17.78° C | 75% | 1016.9 hPa | 0 mm | - | - | - |
| 1777875212 | 17.78° C | 74% | 1017.1 hPa | 0 mm | - | - | - |
| 1777874605 | 18.33° C | 73% | 1017.2 hPa | 0 mm | - | - | - |
| 1777874015 | 18.33° C | 73% | 1017.3 hPa | 0 mm | - | - | - |
| 1777873407 | 18.33° C | 72% | 1017.3 hPa | 0 mm | - | - | - |
| 1777872816 | 18.33° C | 71% | 1017.4 hPa | 0 mm | - | - | - |
| 1777872208 | 18.89° C | 70% | 1017.3 hPa | 0 mm | - | - | - |
| 1777871616 | 18.89° C | 70% | 1017.5 hPa | 0 mm | - | - | - |
| 1777871007 | 18.89° C | 69% | 1017.4 hPa | 0 mm | - | - | - |
| 1777870418 | 18.89° C | 68% | 1017.4 hPa | 0 mm | - | - | - |
| 1777869829 | 18.89° C | 66% | 1017.4 hPa | 0 mm | - | - | - |
| 1777869220 | 18.89° C | 66% | 1017.7 hPa | 0 mm | - | - | - |
| 1777868630 | 18.33° C | 66% | 1017.5 hPa | 0 mm | - | - | - |
| 1777868017 | 17.78° C | 70% | 1017.5 hPa | 0 mm | - | - | - |
| 1777867428 | 16.67° C | 72% | 1017.5 hPa | 0 mm | - | - | - |
| 1777866808 | 17.22° C | 70% | 1017.6 hPa | 0 mm | - | - | - |
| 1777866229 | 17.22° C | 71% | 1017.7 hPa | 0 mm | - | - | - |
| 1777865608 | 17.22° C | 70% | 1017.7 hPa | 0 mm | - | - | - |
| 1777865019 | 17.78° C | 71% | 1017.5 hPa | 0 mm | - | - | - |
| 1777864410 | 18.33° C | 65% | 1017.7 hPa | 0 mm | - | - | - |
| 1777863801 | 18.89° C | 66% | 1017.7 hPa | 0 mm | - | - | - |
| 1777862606 | 19.44° C | 62% | 1017.6 hPa | 0 mm | - | - | - |
* Rain latest hour (hover to see other rain measurements)
** Current wind speed in m/s (hover to see current wind gust speed)